Time;durP1;ratioP1;P1;durP2;ratioP2;P2;SDS_P1;SDS_P2;PMS_P1;PMS_P2;Temp;Humidity;BMP_temperature;BMP_pressure;BME280_temperature;BME280_humidity;BME280_pressure;Samples;Min_cycle;Max_cycle;Signal;HPM_P1;HPM_P2
2023/09/18 00:00:56;;;;;;;12.52;3.92;;;;;;;;;;6184303;23;20072;-69
2023/09/18 00:03:24;;;;;;;13.30;4.03;;;;;;;;;;6183955;23;20099;-69
2023/09/18 00:05:51;;;;;;;14.07;3.70;;;;;;;;;;6184461;23;20076;-69
2023/09/18 00:08:17;;;;;;;8.60;3.38;;;;;;;;;;6184408;23;20071;-69
2023/09/18 00:10:48;;;;;;;9.07;2.75;;;;;;;;;;6184546;23;20093;-68
2023/09/18 00:13:14;;;;;;;10.32;3.10;;;;;;;;;;6184280;23;20077;-69
2023/09/18 00:15:41;;;;;;;11.25;3.20;;;;;;;;;;6184464;23;20088;-69
2023/09/18 00:18:07;;;;;;;11.45;2.72;;;;;;;;;;6183805;23;20087;-69
2023/09/18 00:20:35;;;;;;;10.32;3.10;;;;;;;;;;6184192;23;20068;-69
2023/09/18 00:23:01;;;;;;;12.48;3.65;;;;;;;;;;6184055;23;20072;-68
2023/09/18 00:25:28;;;;;;;10.80;3.50;;;;;;;;;;6185904;23;20076;-69
2023/09/18 00:27:54;;;;;;;17.73;3.25;;;;;;;;;;6186316;23;20072;-69
2023/09/18 00:30:21;;;;;;;14.13;3.80;;;;;;;;;;6186334;23;20068;-69
2023/09/18 00:32:49;;;;;;;10.65;3.53;;;;;;;;;;6185801;23;20495;-69
2023/09/18 00:35:16;;;;;;;20.15;4.90;;;;;;;;;;6186336;23;20076;-69
2023/09/18 00:37:43;;;;;;;19.27;4.40;;;;;;;;;;6186116;23;20069;-69
2023/09/18 00:40:10;;;;;;;17.52;4.22;;;;;;;;;;6186128;23;20076;-69
2023/09/18 00:42:37;;;;;;;19.65;4.57;;;;;;;;;;6186196;23;20068;-69
2023/09/18 00:45:03;;;;;;;17.67;4.68;;;;;;;;;;6186054;23;20128;-68
2023/09/18 00:47:29;;;;;;;24.65;6.40;;;;;;;;;;6185632;23;20068;-69
2023/09/18 00:49:56;;;;;;;27.58;7.30;;;;;;;;;;6185933;23;20077;-69
2023/09/18 00:52:24;;;;;;;24.38;6.13;;;;;;;;;;6186228;23;20511;-69
2023/09/18 00:54:51;;;;;;;17.80;5.10;;;;;;;;;;6186007;23;20072;-69
2023/09/18 00:57:17;;;;;;;34.13;6.80;;;;;;;;;;6185996;23;20143;-69
2023/09/18 00:59:44;;;;;;;33.35;9.07;;;;;;;;;;6185943;23;20389;-69
2023/09/18 01:02:11;;;;;;;43.97;9.68;;;;;;;;;;6185531;23;20097;-69
2023/09/18 01:04:38;;;;;;;38.45;8.95;;;;;;;;;;6185793;23;20535;-69
2023/09/18 01:07:04;;;;;;;24.63;6.75;;;;;;;;;;6185983;23;20081;-69
2023/09/18 01:09:32;;;;;;;37.80;8.80;;;;;;;;;;6185753;23;20076;-69
2023/09/18 01:12:02;;;;;;;37.38;9.43;;;;;;;;;;6159506;23;20079;-69
2023/09/18 01:14:31;;;;;;;27.88;8.70;;;;;;;;;;6185740;23;20080;-69
2023/09/18 01:16:58;;;;;;;30.77;8.70;;;;;;;;;;6185392;23;20072;-69
2023/09/18 01:19:45;;;;;;;27.83;7.10;;;;;;;;;;6185777;23;20080;-69
2023/09/18 01:22:12;;;;;;;28.50;8.35;;;;;;;;;;6185856;23;20076;-68
2023/09/18 01:24:40;;;;;;;40.22;9.05;;;;;;;;;;6185477;23;20085;-69
2023/09/18 01:27:11;;;;;;;38.67;8.55;;;;;;;;;;6185762;23;20080;-69
2023/09/18 01:29:37;;;;;;;30.02;8.32;;;;;;;;;;6185300;23;20327;-69
2023/09/18 01:32:03;;;;;;;34.35;8.05;;;;;;;;;;6134791;23;20084;-69
2023/09/18 01:34:33;;;;;;;34.20;9.07;;;;;;;;;;6159299;23;20076;-69
2023/09/18 01:37:00;;;;;;;33.22;7.38;;;;;;;;;;6185348;23;20082;-69
2023/09/18 01:39:31;;;;;;;21.40;7.22;;;;;;;;;;6185286;23;20068;-69
2023/09/18 01:41:58;;;;;;;;;;;;;;;;;;6186069;23;20080;-69
2023/09/18 01:44:24;;;;;;;25.33;7.72;;;;;;;;;;6185093;23;19986;-69
2023/09/18 01:46:51;;;;;;;25.17;7.03;;;;;;;;;;6159372;23;20119;-69
2023/09/18 01:49:26;;;;;;;39.35;7.90;;;;;;;;;;6185380;23;20076;-69
2023/09/18 01:51:53;;;;;;;33.45;8.73;;;;;;;;;;6185511;23;20072;-69
2023/09/18 01:54:19;;;;;;;44.40;9.68;;;;;;;;;;6185513;23;20076;-69
2023/09/18 01:56:45;;;;;;;32.38;9.00;;;;;;;;;;6185431;23;20088;-69
2023/09/18 01:59:11;;;;;;;29.60;9.27;;;;;;;;;;6158564;23;20093;-69
2023/09/18 02:01:38;;;;;;;34.22;8.73;;;;;;;;;;6185360;23;20068;-69
2023/09/18 02:04:05;;;;;;;34.67;9.55;;;;;;;;;;6185258;23;20579;-69
2023/09/18 02:06:31;;;;;;;27.25;8.43;;;;;;;;;;6159025;23;20073;-69
2023/09/18 02:08:57;;;;;;;28.05;9.77;;;;;;;;;;6185395;23;20072;-69
2023/09/18 02:11:24;;;;;;;33.00;8.93;;;;;;;;;;6185509;23;20084;-69
2023/09/18 02:13:50;;;;;;;42.63;8.35;;;;;;;;;;6184762;23;20068;-69
2023/09/18 02:16:17;;;;;;;39.90;9.60;;;;;;;;;;6185389;23;20076;-69
2023/09/18 02:18:43;;;;;;;45.17;9.82;;;;;;;;;;6185151;23;20365;-69
2023/09/18 02:21:09;;;;;;;35.08;8.82;;;;;;;;;;6185262;23;20088;-69
2023/09/18 02:23:36;;;;;;;34.67;9.15;;;;;;;;;;6185010;23;20522;-69
2023/09/18 02:26:02;;;;;;;34.35;9.40;;;;;;;;;;6185014;23;20080;-69
2023/09/18 02:28:28;;;;;;;34.28;8.95;;;;;;;;;;6184709;23;20084;-69
2023/09/18 02:30:55;;;;;;;32.38;8.95;;;;;;;;;;6185125;23;20084;-69
2023/09/18 02:33:21;;;;;;;36.65;8.80;;;;;;;;;;6185090;23;20387;-69
2023/09/18 02:35:47;;;;;;;30.05;8.48;;;;;;;;;;6185131;23;20072;-69
2023/09/18 02:38:13;;;;;;;37.20;8.88;;;;;;;;;;6184995;23;20511;-69
2023/09/18 02:40:40;;;;;;;28.55;8.35;;;;;;;;;;6185148;23;20076;-69
2023/09/18 02:43:06;;;;;;;33.10;8.40;;;;;;;;;;6184605;23;20091;-69
2023/09/18 02:45:33;;;;;;;31.58;8.55;;;;;;;;;;6184925;23;20069;-69
2023/09/18 02:47:59;;;;;;;30.75;8.07;;;;;;;;;;6184444;23;20064;-69
2023/09/18 02:50:25;;;;;;;39.38;8.93;;;;;;;;;;6184869;23;20092;-69
2023/09/18 02:52:52;;;;;;;36.92;8.88;;;;;;;;;;6184932;23;20073;-69
2023/09/18 02:55:18;;;;;;;32.25;8.93;;;;;;;;;;6184859;23;20446;-69
2023/09/18 02:57:44;;;;;;;33.80;9.13;;;;;;;;;;6184514;23;20080;-69
2023/09/18 03:00:11;;;;;;;32.45;8.63;;;;;;;;;;6184801;23;20079;-69
2023/09/18 03:02:37;;;;;;;32.38;7.97;;;;;;;;;;6158708;23;20072;-68
2023/09/18 03:05:04;;;;;;;30.38;9.00;;;;;;;;;;6184666;23;20470;-69
2023/09/18 03:07:30;;;;;;;32.28;8.60;;;;;;;;;;6184786;23;20064;-69
2023/09/18 03:09:56;;;;;;;28.88;7.57;;;;;;;;;;6184631;23;20084;-69
2023/09/18 03:12:23;;;;;;;33.30;8.13;;;;;;;;;;6184382;23;20076;-69
2023/09/18 03:14:49;;;;;;;35.70;8.63;;;;;;;;;;6184577;23;20080;-69
2023/09/18 03:17:15;;;;;;;27.42;8.02;;;;;;;;;;6184903;23;20076;-69
2023/09/18 03:19:42;;;;;;;36.00;8.15;;;;;;;;;;6184646;23;20064;-69
2023/09/18 03:22:08;;;;;;;25.48;7.85;;;;;;;;;;6184602;23;20092;-69
2023/09/18 03:24:34;;;;;;;33.92;7.82;;;;;;;;;;6184438;23;20557;-69
2023/09/18 03:27:00;;;;;;;29.95;8.20;;;;;;;;;;6184234;23;20076;-69
2023/09/18 03:29:29;;;;;;;31.23;7.53;;;;;;;;;;6184457;23;20087;-69
2023/09/18 03:31:58;;;;;;;30.08;9.13;;;;;;;;;;6184654;23;20108;-69
2023/09/18 03:34:26;;;;;;;27.25;8.25;;;;;;;;;;6184678;23;20511;-69
2023/09/18 03:36:53;;;;;;;39.22;7.80;;;;;;;;;;6158202;23;20084;-69
2023/09/18 03:39:20;;;;;;;32.58;7.93;;;;;;;;;;6184423;23;20072;-69
2023/09/18 03:41:46;;;;;;;33.75;8.02;;;;;;;;;;6184168;23;20072;-69
2023/09/18 03:44:12;;;;;;;31.85;8.50;;;;;;;;;;6133608;23;20148;-69
2023/09/18 03:46:39;;;;;;;33.33;8.02;;;;;;;;;;6184411;23;20068;-69
2023/09/18 03:49:06;;;;;;;31.08;8.07;;;;;;;;;;6184449;23;20089;-69
2023/09/18 03:51:34;;;;;;;29.27;7.88;;;;;;;;;;6184447;23;20081;-69
2023/09/18 03:54:00;;;;;;;35.50;8.75;;;;;;;;;;6184238;23;20084;-69
2023/09/18 03:56:26;;;;;;;27.90;7.90;;;;;;;;;;6184144;23;20383;-69
2023/09/18 03:58:53;;;;;;;28.40;7.93;;;;;;;;;;6184842;23;20068;-69
2023/09/18 04:01:19;;;;;;;35.47;8.77;;;;;;;;;;6186448;23;20065;-69
2023/09/18 04:03:45;;;;;;;34.88;8.73;;;;;;;;;;6186474;23;20092;-69
2023/09/18 04:06:12;;;;;;;29.85;8.20;;;;;;;;;;6186514;23;20512;-69
2023/09/18 04:08:38;;;;;;;35.40;8.70;;;;;;;;;;6186466;23;20080;-69
2023/09/18 04:11:04;;;;;;;27.65;7.85;;;;;;;;;;6186055;23;20068;-69
2023/09/18 04:13:30;;;;;;;30.52;8.38;;;;;;;;;;6186472;23;20076;-69
2023/09/18 04:15:57;;;;;;;28.73;8.20;;;;;;;;;;6186333;23;20063;-69
2023/09/18 04:18:23;;;;;;;29.55;7.82;;;;;;;;;;6186432;23;20077;-69
2023/09/18 04:20:53;;;;;;;28.67;8.07;;;;;;;;;;6186295;23;20583;-69
2023/09/18 04:23:21;;;;;;;32.30;7.90;;;;;;;;;;6159738;23;20088;-69
2023/09/18 04:25:48;;;;;;;30.63;8.85;;;;;;;;;;6160205;23;20092;-69
2023/09/18 04:28:15;;;;;;;31.85;8.40;;;;;;;;;;6159917;23;20080;-69
2023/09/18 04:30:41;;;;;;;27.63;8.82;;;;;;;;;;6186138;23;20072;-69
2023/09/18 04:33:07;;;;;;;32.65;8.02;;;;;;;;;;6186339;23;20076;-69
2023/09/18 04:35:33;;;;;;;29.98;8.07;;;;;;;;;;6186173;23;20072;-69
2023/09/18 04:38:00;;;;;;;32.10;8.35;;;;;;;;;;6159746;23;20076;-70
2023/09/18 04:40:31;;;;;;;21.25;8.02;;;;;;;;;;6186274;23;20072;-69
2023/09/18 04:42:58;;;;;;;33.78;8.40;;;;;;;;;;6186144;23;20080;-69
2023/09/18 04:45:25;;;;;;;31.65;8.73;;;;;;;;;;6186124;23;20072;-69
2023/09/18 04:47:52;;;;;;;22.70;8.48;;;;;;;;;;6186118;23;20089;-69
2023/09/18 04:50:18;;;;;;;36.92;8.98;;;;;;;;;;6186114;23;20072;-69
2023/09/18 04:52:45;;;;;;;32.50;8.50;;;;;;;;;;6185644;23;20076;-69
2023/09/18 04:55:11;;;;;;;23.23;7.30;;;;;;;;;;6185958;23;20096;-68
2023/09/18 04:57:38;;;;;;;23.50;7.40;;;;;;;;;;6186079;23;20496;-69
2023/09/18 05:00:08;;;;;;;25.17;7.25;;;;;;;;;;6185915;23;20072;-69
2023/09/18 05:02:36;;;;;;;25.45;7.65;;;;;;;;;;6186012;23;20076;-69
2023/09/18 05:05:03;;;;;;;30.83;7.70;;;;;;;;;;6185895;23;20080;-69
2023/09/18 05:07:30;;;;;;;23.77;7.10;;;;;;;;;;6159110;23;20093;-69
2023/09/18 05:09:56;;;;;;;22.00;7.40;;;;;;;;;;6185616;23;20080;-69
2023/09/18 05:12:23;;;;;;;28.02;8.00;;;;;;;;;;6185546;23;20076;-69
2023/09/18 05:14:50;;;;;;;30.40;7.57;;;;;;;;;;6185950;23;20080;-69
2023/09/18 05:17:17;;;;;;;30.02;7.55;;;;;;;;;;6185852;23;20079;-69
2023/09/18 05:19:44;;;;;;;28.20;7.43;;;;;;;;;;6186009;23;20082;-69
2023/09/18 05:22:10;;;;;;;21.77;7.53;;;;;;;;;;6185442;23;20080;-69
2023/09/18 05:24:37;;;;;;;30.92;8.27;;;;;;;;;;6185464;23;20511;-69
2023/09/18 05:27:06;;;;;;;26.17;7.63;;;;;;;;;;6185721;23;20108;-69
2023/09/18 05:29:32;;;;;;;27.38;7.72;;;;;;;;;;6185684;23;20075;-69
2023/09/18 05:31:58;;;;;;;23.58;8.15;;;;;;;;;;6185688;23;20072;-69
2023/09/18 05:34:25;;;;;;;25.25;9.18;;;;;;;;;;6185750;23;20068;-69
2023/09/18 05:36:52;;;;;;;21.58;8.00;;;;;;;;;;6185134;23;20495;-69
2023/09/18 05:39:18;;;;;;;25.30;8.32;;;;;;;;;;6185507;23;20084;-69
2023/09/18 05:41:44;;;;;;;29.85;8.85;;;;;;;;;;6185612;23;20084;-69
2023/09/18 05:44:11;;;;;;;28.92;8.88;;;;;;;;;;6185365;23;20023;-69
2023/09/18 05:46:37;;;;;;;27.48;8.88;;;;;;;;;;6185454;23;20072;-69
2023/09/18 05:49:04;;;;;;;32.50;9.88;;;;;;;;;;6185392;23;20072;-69
2023/09/18 05:51:32;;;;;;;24.67;9.00;;;;;;;;;;6184983;23;20072;-69
2023/09/18 05:53:58;;;;;;;25.05;9.30;;;;;;;;;;6185212;23;20093;-69
2023/09/18 05:56:25;;;;;;;23.73;8.80;;;;;;;;;;6185500;23;20081;-69
2023/09/18 05:58:52;;;;;;;26.33;8.85;;;;;;;;;;6185376;23;20076;-69
2023/09/18 06:01:19;;;;;;;30.13;9.10;;;;;;;;;;6185285;23;20123;-69
2023/09/18 06:03:45;;;;;;;28.98;9.45;;;;;;;;;;6185054;23;20088;-69
2023/09/18 06:06:11;;;;;;;32.75;9.38;;;;;;;;;;6184864;23;20116;-69
2023/09/18 06:08:37;;;;;;;34.22;9.35;;;;;;;;;;6185207;23;20065;-69
2023/09/18 06:11:04;;;;;;;28.05;8.73;;;;;;;;;;6185229;23;20072;-69
2023/09/18 06:13:30;;;;;;;23.33;8.00;;;;;;;;;;6184995;23;20084;-69
2023/09/18 06:15:57;;;;;;;30.52;8.35;;;;;;;;;;6181926;23;20083;-69
2023/09/18 06:18:23;;;;;;;31.23;9.32;;;;;;;;;;6181689;23;20072;-70
2023/09/18 06:20:50;;;;;;;21.92;8.75;;;;;;;;;;6183825;23;20403;-68
2023/09/18 06:23:16;;;;;;;30.67;8.50;;;;;;;;;;6183861;23;20080;-69
2023/09/18 06:25:43;;;;;;;25.40;8.65;;;;;;;;;;6183590;23;20092;-69
2023/09/18 06:28:10;;;;;;;29.77;9.60;;;;;;;;;;6182433;23;20080;-69
2023/09/18 06:30:36;;;;;;;28.67;9.15;;;;;;;;;;6182953;23;20085;-69
2023/09/18 06:33:03;;;;;;;27.20;8.93;;;;;;;;;;6184607;23;20084;-69
2023/09/18 06:35:30;;;;;;;25.13;8.10;;;;;;;;;;6157370;23;20076;-70
2023/09/18 06:37:58;;;;;;;28.10;8.32;;;;;;;;;;6179741;23;20076;-71
2023/09/18 06:40:25;;;;;;;25.48;7.57;;;;;;;;;;6184608;23;20092;-71
2023/09/18 06:42:59;;;;;;;27.75;7.60;;;;;;;;;;6183792;23;20075;-73
2023/09/18 06:45:26;;;;;;;26.42;8.80;;;;;;;;;;6182651;23;20096;-72
2023/09/18 06:47:53;;;;;;;27.13;7.35;;;;;;;;;;6183449;23;20080;-71
2023/09/18 06:50:19;;;;;;;37.70;8.80;;;;;;;;;;6181872;23;20085;-72
2023/09/18 06:52:46;;;;;;;25.40;7.47;;;;;;;;;;6182199;23;20080;-71
2023/09/18 06:55:12;;;;;;;26.48;8.50;;;;;;;;;;6179018;23;20072;-70
2023/09/18 06:57:40;;;;;;;22.15;7.82;;;;;;;;;;6157390;23;20084;-70
2023/09/18 07:00:06;;;;;;;25.02;8.23;;;;;;;;;;6181894;23;20095;-71
2023/09/18 07:02:33;;;;;;;24.65;8.18;;;;;;;;;;6180133;23;20172;-70
2023/09/18 07:04:59;;;;;;;37.70;9.00;;;;;;;;;;6181898;23;20017;-71
2023/09/18 07:07:26;;;;;;;26.73;7.88;;;;;;;;;;6156765;23;20103;-71
2023/09/18 07:09:54;;;;;;;26.08;7.65;;;;;;;;;;6182902;23;20392;-70
2023/09/18 07:12:22;;;;;;;20.48;7.22;;;;;;;;;;6183182;23;20075;-70
2023/09/18 07:14:48;;;;;;;24.05;7.78;;;;;;;;;;6183091;23;20144;-72
2023/09/18 07:17:15;;;;;;;30.55;8.02;;;;;;;;;;6183165;23;20076;-71
2023/09/18 07:19:41;;;;;;;27.30;7.70;;;;;;;;;;6182824;23;20068;-71
2023/09/18 07:22:07;;;;;;;24.17;7.90;;;;;;;;;;6181611;23;20057;-70
2023/09/18 07:24:34;;;;;;;28.50;7.05;;;;;;;;;;6179633;23;20371;-71
2023/09/18 07:27:00;;;;;;;27.88;7.57;;;;;;;;;;6182049;23;20387;-72
2023/09/18 07:29:27;;;;;;;30.20;6.07;;;;;;;;;;6181403;23;20100;-81
2023/09/18 07:31:53;;;;;;;24.35;5.95;;;;;;;;;;6181544;23;20076;-70
2023/09/18 07:34:19;;;;;;;15.63;5.22;;;;;;;;;;6182168;23;20092;-77
2023/09/18 07:36:54;;;;;;;27.60;5.05;;;;;;;;;;6181411;23;20080;-77
2023/09/18 07:39:20;;;;;;;14.40;4.53;;;;;;;;;;6182648;23;20080;-72
2023/09/18 07:41:47;;;;;;;10.55;3.38;;;;;;;;;;6156548;23;20080;-71
2023/09/18 07:44:19;;;;;;;15.70;3.40;;;;;;;;;;6182133;23;20523;-73
2023/09/18 07:46:45;;;;;;;8.40;3.00;;;;;;;;;;6181975;23;20054;-78
2023/09/18 07:49:12;;;;;;;13.90;3.40;;;;;;;;;;6182331;23;20076;-84
2023/09/18 07:51:38;;;;;;;11.70;2.75;;;;;;;;;;6183203;23;20384;-73
2023/09/18 07:54:04;;;;;;;19.15;3.03;;;;;;;;;;6182915;23;20088;-73
2023/09/18 07:56:33;;;;;;;9.20;2.90;;;;;;;;;;6182197;23;20511;-72
2023/09/18 07:58:59;;;;;;;10.90;2.63;;;;;;;;;;6156677;23;20079;-74
2023/09/18 08:01:25;;;;;;;11.07;2.50;;;;;;;;;;6157143;23;20085;-72
2023/09/18 08:03:52;;;;;;;7.20;2.20;;;;;;;;;;6183451;23;20403;-72
2023/09/18 08:06:19;;;;;;;13.18;3.15;;;;;;;;;;6182844;23;20076;-72
2023/09/18 08:08:46;;;;;;;8.88;2.10;;;;;;;;;;6183297;23;20725;-74
2023/09/18 08:11:12;;;;;;;6.53;2.08;;;;;;;;;;6183383;23;20093;-76
2023/09/18 08:13:39;;;;;;;11.68;2.10;;;;;;;;;;6183497;23;20109;-73
2023/09/18 08:16:07;;;;;;;6.68;1.90;;;;;;;;;;6182748;23;20096;-72
2023/09/18 08:18:34;;;;;;;9.13;2.25;;;;;;;;;;6182834;23;20095;-72
2023/09/18 08:21:01;;;;;;;6.13;1.65;;;;;;;;;;6183954;23;20072;-71
2023/09/18 08:23:27;;;;;;;12.60;1.88;;;;;;;;;;6183414;23;20092;-74
2023/09/18 08:25:57;;;;;;;5.43;1.90;;;;;;;;;;6182848;23;20072;-73
2023/09/18 08:28:23;;;;;;;11.20;2.30;;;;;;;;;;6183053;23;20390;-73
2023/09/18 08:30:50;;;;;;;9.05;1.90;;;;;;;;;;6182110;23;20088;-72
2023/09/18 08:33:16;;;;;;;8.05;2.38;;;;;;;;;;6182887;23;20076;-76
2023/09/18 08:35:44;;;;;;;10.00;2.50;;;;;;;;;;6153726;23;20365;-82
2023/09/18 08:38:10;;;;;;;5.88;2.00;;;;;;;;;;6182672;23;20089;-70
2023/09/18 08:40:36;;;;;;;9.32;2.40;;;;;;;;;;6183049;23;20499;-73
2023/09/18 08:43:03;;;;;;;8.10;2.20;;;;;;;;;;6183594;23;20068;-74
2023/09/18 08:45:50;;;;;;;6.63;2.17;;;;;;;;;;6183032;23;20095;-74
2023/09/18 08:48:16;;;;;;;5.72;2.05;;;;;;;;;;6184973;23;20431;-72
2023/09/18 08:50:43;;;;;;;5.78;1.77;;;;;;;;;;6184739;23;20088;-73
2023/09/18 08:53:10;;;;;;;6.45;2.00;;;;;;;;;;6184994;23;20475;-72
2023/09/18 08:55:36;;;;;;;5.00;1.70;;;;;;;;;;6184219;23;20076;-75
2023/09/18 08:58:03;;;;;;;4.47;1.70;;;;;;;;;;6157985;23;20413;-73
2023/09/18 09:00:29;;;;;;;5.68;1.80;;;;;;;;;;6183814;23;20080;-77
2023/09/18 09:02:55;;;;;;;8.63;2.50;;;;;;;;;;6185041;23;20084;-73
2023/09/18 09:05:22;;;;;;;7.47;2.08;;;;;;;;;;6185058;23;20096;-76
2023/09/18 09:07:50;;;;;;;5.60;1.85;;;;;;;;;;6158524;23;20093;-73
2023/09/18 09:10:16;;;;;;;7.38;2.25;;;;;;;;;;6184373;23;20081;-73
2023/09/18 09:12:49;;;;;;;11.18;2.08;;;;;;;;;;6158824;23;20068;-73
2023/09/18 09:15:15;;;;;;;6.57;2.33;;;;;;;;;;6183880;23;20076;-78
2023/09/18 09:17:44;;;;;;;4.43;1.88;;;;;;;;;;6157567;23;20080;-73
2023/09/18 09:20:12;;;;;;;12.93;2.20;;;;;;;;;;6184093;23;20083;-72
2023/09/18 09:22:44;;;;;;;7.72;1.83;;;;;;;;;;6158018;23;20143;-73
2023/09/18 09:25:31;;;;;;;4.30;1.60;;;;;;;;;;6184850;23;20080;-72
2023/09/18 09:27:58;;;;;;;9.38;2.47;;;;;;;;;;6184233;23;20084;-73
2023/09/18 09:30:26;;;;;;;5.57;1.90;;;;;;;;;;6183636;23;20076;-73
2023/09/18 09:32:53;;;;;;;4.57;1.40;;;;;;;;;;6183332;23;20074;-71
2023/09/18 09:35:26;;;;;;;2.55;1.52;;;;;;;;;;6184706;23;20081;-72
2023/09/18 09:37:55;;;;;;;7.70;1.70;;;;;;;;;;6184655;23;20084;-73
2023/09/18 09:40:22;;;;;;;1.50;1.15;;;;;;;;;;6184952;23;20072;-72
2023/09/18 09:42:51;;;;;;;3.28;1.70;;;;;;;;;;6183767;23;20080;-73
2023/09/18 09:45:17;;;;;;;3.10;1.60;;;;;;;;;;6158006;23;20084;-71
2023/09/18 09:47:44;;;;;;;7.65;1.55;;;;;;;;;;6184299;23;20092;-72
2023/09/18 09:50:13;;;;;;;7.65;2.10;;;;;;;;;;6158135;23;20110;-69
2023/09/18 09:52:49;;;;;;;4.25;1.48;;;;;;;;;;6183970;23;20112;-73
2023/09/18 09:55:20;;;;;;;6.88;1.77;;;;;;;;;;6183986;23;20176;-71
2023/09/18 09:57:57;;;;;;;4.25;1.58;;;;;;;;;;6183651;23;20084;-73
2023/09/18 10:00:27;;;;;;;3.92;1.58;;;;;;;;;;6184498;23;20084;-72
2023/09/18 10:03:00;;;;;;;4.15;1.48;;;;;;;;;;6183493;23;20064;-73
2023/09/18 10:05:28;;;;;;;3.35;1.40;;;;;;;;;;6157941;23;20412;-72
2023/09/18 10:07:58;;;;;;;5.40;1.50;;;;;;;;;;6183542;23;20088;-73
2023/09/18 10:10:25;;;;;;;2.90;1.40;;;;;;;;;;6184043;23;20080;-72
2023/09/18 10:12:53;;;;;;;4.43;1.55;;;;;;;;;;6131928;23;20084;-71
2023/09/18 10:15:19;;;;;;;6.45;1.60;;;;;;;;;;6183632;23;20080;-71
2023/09/18 10:17:48;;;;;;;2.78;1.55;;;;;;;;;;6184100;23;20080;-71
2023/09/18 10:20:19;;;;;;;3.20;1.50;;;;;;;;;;6157146;23;20138;-71
2023/09/18 10:22:46;;;;;;;3.35;1.45;;;;;;;;;;6157657;23;20087;-69
2023/09/18 10:25:41;;;;;;;4.05;1.48;;;;;;;;;;6184000;23;20068;-71
2023/09/18 10:28:08;;;;;;;2.35;1.48;;;;;;;;;;6179422;23;20188;-72
2023/09/18 10:30:41;;;;;;;3.97;1.33;;;;;;;;;;6183953;23;20071;-73
2023/09/18 10:33:08;;;;;;;5.60;1.70;;;;;;;;;;6155678;23;20029;-69
2023/09/18 10:35:35;;;;;;;3.25;1.60;;;;;;;;;;6181648;23;20076;-67
2023/09/18 10:38:02;;;;;;;6.45;1.70;;;;;;;;;;6183077;23;20531;-68
2023/09/18 10:40:31;;;;;;;2.30;1.38;;;;;;;;;;6183031;23;20069;-70
2023/09/18 10:42:58;;;;;;;3.23;1.73;;;;;;;;;;6183209;23;20076;-68
2023/09/18 10:45:26;;;;;;;5.80;1.30;;;;;;;;;;6180798;23;20080;-67
2023/09/18 10:47:53;;;;;;;5.20;1.67;;;;;;;;;;6182796;23;20080;-68
2023/09/18 10:50:26;;;;;;;3.67;1.45;;;;;;;;;;6183038;23;20096;-67
2023/09/18 10:52:53;;;;;;;4.70;1.65;;;;;;;;;;6183182;23;20084;-68
2023/09/18 10:55:19;;;;;;;2.50;1.50;;;;;;;;;;6182634;23;20092;-68
2023/09/18 10:57:53;;;;;;;2.17;1.50;;;;;;;;;;6183333;23;20080;-67
2023/09/18 11:00:22;;;;;;;2.33;1.40;;;;;;;;;;6183454;23;20064;-68
2023/09/18 11:02:48;;;;;;;;;;;;;;;;;;6183593;23;20099;-67
2023/09/18 11:05:15;;;;;;;4.85;1.95;;;;;;;;;;6183769;23;19983;-68
2023/09/18 11:07:41;;;;;;;3.75;1.52;;;;;;;;;;6156980;23;20072;-67
2023/09/18 11:10:26;;;;;;;3.40;1.65;;;;;;;;;;6182496;23;20079;-67
2023/09/18 11:12:54;;;;;;;3.53;1.67;;;;;;;;;;6183323;23;20431;-67
2023/09/18 11:15:32;;;;;;;3.67;1.70;;;;;;;;;;6183270;23;20077;-68
2023/09/18 11:18:00;;;;;;;4.88;1.73;;;;;;;;;;6183180;23;20088;-68
2023/09/18 11:20:27;;;;;;;3.17;1.30;;;;;;;;;;6183421;23;20064;-68
2023/09/18 11:22:58;;;;;;;3.70;1.38;;;;;;;;;;6157057;23;20132;-68
2023/09/18 11:25:41;;;;;;;8.73;1.70;;;;;;;;;;6182763;23;20171;-68
2023/09/18 11:28:08;;;;;;;3.80;1.63;;;;;;;;;;6183339;23;20084;-68
2023/09/18 11:30:41;;;;;;;2.05;1.48;;;;;;;;;;6181516;23;20079;-68
2023/09/18 11:33:08;;;;;;;10.27;1.65;;;;;;;;;;6182929;23;20096;-68
2023/09/18 11:35:35;;;;;;;6.65;1.50;;;;;;;;;;6183208;23;20072;-68
2023/09/18 11:38:06;;;;;;;2.67;1.45;;;;;;;;;;6182887;23;20091;-68
2023/09/18 11:40:40;;;;;;;5.07;1.38;;;;;;;;;;6182847;23;20398;-68
2023/09/18 11:43:19;;;;;;;3.58;1.30;;;;;;;;;;6183048;23;20080;-69
2023/09/18 11:45:50;;;;;;;2.40;1.23;;;;;;;;;;6182751;23;20080;-67
2023/09/18 11:48:17;;;;;;;1.77;1.23;;;;;;;;;;6183075;23;20079;-68
2023/09/18 11:50:44;;;;;;;2.17;1.52;;;;;;;;;;6156481;23;20111;-68
2023/09/18 11:53:12;;;;;;;1.52;1.30;;;;;;;;;;6177847;23;20087;-68
2023/09/18 11:55:40;;;;;;;7.93;1.57;;;;;;;;;;6182924;23;20080;-68
2023/09/18 11:58:09;;;;;;;4.75;1.13;;;;;;;;;;6181702;23;20083;-68
2023/09/18 12:00:45;;;;;;;1.55;1.17;;;;;;;;;;6179818;23;20634;-68
2023/09/18 12:03:25;;;;;;;3.88;1.17;;;;;;;;;;6179244;23;20072;-67
2023/09/18 12:05:53;;;;;;;2.22;1.30;;;;;;;;;;6181071;23;20076;-68
2023/09/18 12:08:19;;;;;;;1.75;1.50;;;;;;;;;;6182064;23;20072;-67
2023/09/18 12:10:48;;;;;;;2.60;1.58;;;;;;;;;;6181790;23;20084;-68
2023/09/18 12:13:14;;;;;;;1.85;1.10;;;;;;;;;;6181647;23;20080;-68
2023/09/18 12:15:41;;;;;;;2.08;1.42;;;;;;;;;;6181775;23;20084;-68
2023/09/18 12:18:14;;;;;;;2.75;1.30;;;;;;;;;;6180821;23;20093;-69
2023/09/18 12:20:47;;;;;;;1.92;1.20;;;;;;;;;;6182524;23;20080;-68
2023/09/18 12:23:14;;;;;;;2.63;1.35;;;;;;;;;;6182804;23;20377;-68
2023/09/18 12:25:41;;;;;;;4.60;1.20;;;;;;;;;;6183402;23;20508;-68
2023/09/18 12:28:08;;;;;;;4.78;1.60;;;;;;;;;;6182202;23;20099;-68
2023/09/18 12:30:37;;;;;;;2.65;1.10;;;;;;;;;;6183233;23;20081;-68
2023/09/18 12:33:06;;;;;;;2.08;1.20;;;;;;;;;;6181353;23;20083;-68
2023/09/18 12:35:32;;;;;;;;;;;;;;;;;;6180035;23;20027;-68
2023/09/18 12:38:00;;;;;;;2.45;1.20;;;;;;;;;;6156594;23;20304;-68
2023/09/18 12:40:32;;;;;;;3.08;1.33;;;;;;;;;;6182926;23;20381;-68
2023/09/18 12:42:59;;;;;;;7.45;1.35;;;;;;;;;;6154762;23;20119;-68
2023/09/18 12:45:27;;;;;;;1.95;1.20;;;;;;;;;;6157172;23;20064;-68
2023/09/18 12:47:55;;;;;;;3.00;1.00;;;;;;;;;;6183863;23;20072;-67
2023/09/18 12:50:22;;;;;;;3.50;1.20;;;;;;;;;;6157397;23;20072;-71
2023/09/18 12:52:48;;;;;;;1.48;1.17;;;;;;;;;;6182858;23;20088;-67
2023/09/18 12:55:22;;;;;;;1.95;1.25;;;;;;;;;;6156883;23;20020;-67
2023/09/18 12:57:49;;;;;;;1.88;1.30;;;;;;;;;;6182758;23;20104;-68
2023/09/18 13:00:19;;;;;;;1.92;1.20;;;;;;;;;;6182087;23;20084;-68
2023/09/18 13:02:46;;;;;;;;;;;;;;;;;;6183973;23;20088;-67
2023/09/18 13:05:14;;;;;;;2.83;1.13;;;;;;;;;;6183375;23;19983;-70
2023/09/18 13:07:44;;;;;;;2.10;1.33;;;;;;;;;;6182821;23;20080;-67
2023/09/18 13:10:11;;;;;;;2.22;1.30;;;;;;;;;;6182655;23;20088;-70
2023/09/18 13:12:46;;;;;;;5.00;1.55;;;;;;;;;;6183005;23;20079;-68
2023/09/18 13:15:13;;;;;;;5.32;1.23;;;;;;;;;;6182872;23;20063;-70
2023/09/18 13:17:40;;;;;;;4.55;0.98;;;;;;;;;;6183672;23;20064;-69
2023/09/18 13:20:07;;;;;;;4.60;1.30;;;;;;;;;;6182381;23;20108;-69
2023/09/18 13:22:36;;;;;;;3.97;1.10;;;;;;;;;;6182489;23;20084;-69
2023/09/18 13:25:02;;;;;;;9.40;7.10;;;;;;;;;;6182169;23;20092;-69
2023/09/18 13:27:28;;;;;;;1.58;1.30;;;;;;;;;;6183215;23;20088;-70
2023/09/18 13:29:55;;;;;;;4.43;1.52;;;;;;;;;;6182259;23;20076;-69
2023/09/18 13:32:22;;;;;;;4.30;1.33;;;;;;;;;;6155434;23;20586;-69
2023/09/18 13:34:48;;;;;;;2.42;1.20;;;;;;;;;;6182839;23;20031;-69
2023/09/18 13:37:17;;;;;;;3.22;1.08;;;;;;;;;;6182844;23;20127;-69
2023/09/18 13:39:43;;;;;;;4.35;1.40;;;;;;;;;;6182656;23;20084;-69
2023/09/18 13:42:09;;;;;;;1.85;1.13;;;;;;;;;;6183537;23;20088;-69
2023/09/18 13:44:36;;;;;;;4.25;1.17;;;;;;;;;;6183201;23;20084;-69
2023/09/18 13:47:03;;;;;;;12.38;1.30;;;;;;;;;;6182065;23;20076;-69
2023/09/18 13:49:29;;;;;;;3.75;1.50;;;;;;;;;;6183162;23;20430;-69
2023/09/18 13:51:56;;;;;;;3.40;1.20;;;;;;;;;;6183734;23;20088;-69
2023/09/18 13:54:23;;;;;;;2.80;1.30;;;;;;;;;;6182797;23;20021;-69
2023/09/18 13:56:49;;;;;;;3.72;1.30;;;;;;;;;;6183090;23;20132;-69
2023/09/18 13:59:15;;;;;;;3.35;1.20;;;;;;;;;;6156902;23;20074;-69
2023/09/18 14:01:41;;;;;;;2.75;1.42;;;;;;;;;;6183629;23;20092;-69
2023/09/18 14:04:08;;;;;;;2.65;1.10;;;;;;;;;;6183167;23;20076;-70
2023/09/18 14:06:34;;;;;;;8.18;1.40;;;;;;;;;;6183217;23;20393;-69
2023/09/18 14:09:00;;;;;;;2.70;1.10;;;;;;;;;;6178506;23;20008;-70
2023/09/18 14:11:27;;;;;;;4.47;1.20;;;;;;;;;;6181616;23;20080;-68
2023/09/18 14:13:53;;;;;;;2.60;1.13;;;;;;;;;;6181107;23;20343;-68
2023/09/18 14:16:19;;;;;;;1.75;1.30;;;;;;;;;;6182569;23;20511;-69
2023/09/18 14:18:46;;;;;;;1.60;1.10;;;;;;;;;;6182353;23;20061;-70
2023/09/18 14:21:12;;;;;;;4.70;1.23;;;;;;;;;;6180362;23;20320;-70
2023/09/18 14:23:38;;;;;;;3.45;1.08;;;;;;;;;;6182088;23;20084;-68
2023/09/18 14:26:05;;;;;;;9.32;1.42;;;;;;;;;;6181735;23;20013;-69
2023/09/18 14:28:32;;;;;;;7.57;1.30;;;;;;;;;;6182299;23;20127;-69
2023/09/18 14:30:59;;;;;;;1.48;1.10;;;;;;;;;;6181793;23;20068;-70
2023/09/18 14:33:25;;;;;;;5.90;1.40;;;;;;;;;;6180090;23;20065;-69
2023/09/18 14:35:51;;;;;;;6.28;1.25;;;;;;;;;;6182353;23;20092;-69
2023/09/18 14:38:18;;;;;;;2.78;1.30;;;;;;;;;;6181995;23;20080;-67